createdAt,value
2022-09-23T00:01:15.493Z,7.16
2022-09-23T00:03:46.670Z,7.13
2022-09-23T00:06:22.663Z,7.07
2022-09-23T00:08:50.305Z,6.98
2022-09-23T00:11:20.648Z,6.91
2022-09-23T00:13:50.219Z,6.85
2022-09-23T00:16:24.281Z,6.82
2022-09-23T00:18:51.620Z,6.79
2022-09-23T00:21:20.219Z,6.77
2022-09-23T00:23:47.952Z,6.71
2022-09-23T00:26:18.508Z,6.68
2022-09-23T00:28:46.629Z,6.65
2022-09-23T00:31:23.378Z,6.64
2022-09-23T00:33:58.557Z,6.63
2022-09-23T00:36:27.398Z,6.61
2022-09-23T00:38:55.002Z,6.55
2022-09-23T00:41:22.141Z,6.51
2022-09-23T00:43:53.155Z,6.46
2022-09-23T00:46:36.745Z,6.46
2022-09-23T00:49:13.038Z,6.47
2022-09-23T00:51:49.590Z,6.44
2022-09-23T00:54:18.341Z,6.45
2022-09-23T00:56:45.417Z,6.43
2022-09-23T00:59:13.499Z,6.43
2022-09-23T01:01:41.944Z,6.38
2022-09-23T01:04:09.434Z,6.35
2022-09-23T01:07:08.817Z,6.31
2022-09-23T01:09:36.459Z,6.25
2022-09-23T01:12:26.279Z,6.18
2022-09-23T01:15:13.806Z,6.14
2022-09-23T01:17:59.828Z,6.11
2022-09-23T01:20:35.793Z,6.12
2022-09-23T01:23:29.053Z,6.16
2022-09-23T01:26:34.797Z,6.17
2022-09-23T01:29:29.494Z,6.15
2022-09-23T01:32:22.463Z,6.18
2022-09-23T01:35:18.029Z,6.23
2022-09-23T01:38:02.438Z,6.26
2022-09-23T01:40:49.319Z,6.25
2022-09-23T01:43:27.174Z,6.27
2022-09-23T01:45:59.492Z,6.27
2022-09-23T01:48:38.574Z,6.26
2022-09-23T01:51:08.293Z,6.31
2022-09-23T01:53:41.386Z,6.33
2022-09-23T01:56:31.970Z,6.32
2022-09-23T01:59:26.173Z,6.33
2022-09-23T02:02:18.847Z,6.32
2022-09-23T02:05:07.536Z,6.33
2022-09-23T02:07:45.587Z,6.35
2022-09-23T02:10:24.738Z,6.29
2022-09-23T02:12:58.055Z,6.30
2022-09-23T02:15:30.342Z,6.29
2022-09-23T02:18:13.201Z,6.26
2022-09-23T02:20:40.571Z,6.27
2022-09-23T02:23:12.769Z,6.24
2022-09-23T02:26:04.591Z,6.21
2022-09-23T02:28:42.827Z,6.20
2022-09-23T02:31:28.472Z,6.19
2022-09-23T02:34:02.150Z,6.16
2022-09-23T02:36:44.504Z,6.12
2022-09-23T02:39:14.686Z,6.08
2022-09-23T02:41:41.691Z,6.05
2022-09-23T02:44:12.562Z,6.04
2022-09-23T02:46:42.828Z,6.01
2022-09-23T02:49:23.418Z,6.01
2022-09-23T02:51:52.848Z,6.00
2022-09-23T02:54:25.658Z,5.94
2022-09-23T02:56:53.359Z,5.90
2022-09-23T02:59:22.893Z,5.90
2022-09-23T03:02:21.303Z,5.85
2022-09-23T03:05:06.387Z,5.81
2022-09-23T03:08:25.351Z,5.78
2022-09-23T03:11:05.360Z,5.82
2022-09-23T03:13:46.413Z,5.86
2022-09-23T03:16:37.172Z,5.86
2022-09-23T03:19:22.842Z,5.86
2022-09-23T03:21:52.580Z,5.81
2022-09-23T03:24:21.819Z,5.80
2022-09-23T03:26:49.907Z,5.79
2022-09-23T03:29:20.232Z,5.79
2022-09-23T03:31:47.498Z,5.82
2022-09-23T03:34:20.046Z,5.87
2022-09-23T03:37:02.498Z,5.89
2022-09-23T03:39:47.658Z,5.91
2022-09-23T03:42:22.010Z,5.89
2022-09-23T03:44:56.024Z,5.88
2022-09-23T03:47:26.217Z,5.85
2022-09-23T03:49:53.983Z,5.83
2022-09-23T03:52:23.409Z,5.82
2022-09-23T03:54:51.647Z,5.78
2022-09-23T03:57:21.619Z,5.77
2022-09-23T03:59:50.090Z,5.73
2022-09-23T04:02:18.531Z,5.72
2022-09-23T04:04:45.660Z,5.68
2022-09-23T04:07:13.628Z,5.64
2022-09-23T04:09:41.505Z,5.61
2022-09-23T04:12:12.971Z,5.58
2022-09-23T04:14:40.228Z,5.57
2022-09-23T04:17:07.856Z,5.54
2022-09-23T04:19:35.054Z,5.51
2022-09-23T04:22:02.002Z,5.48
2022-09-23T04:24:29.280Z,5.44
2022-09-23T04:26:56.920Z,5.41
2022-09-23T04:29:25.224Z,5.39
2022-09-23T04:31:52.835Z,5.40
2022-09-23T04:34:20.427Z,5.38
2022-09-23T04:36:48.640Z,5.35
2022-09-23T04:39:16.633Z,5.33
2022-09-23T04:41:44.699Z,5.32
2022-09-23T04:44:13.873Z,5.31
2022-09-23T04:46:42.177Z,5.29
2022-09-23T04:49:09.383Z,5.26
2022-09-23T04:51:36.486Z,5.27
2022-09-23T04:54:03.554Z,5.28
2022-09-23T04:56:32.265Z,5.27
2022-09-23T04:59:01.295Z,5.27
2022-09-23T05:01:33.934Z,5.29
2022-09-23T05:04:05.882Z,5.29
2022-09-23T05:06:34.569Z,5.30
2022-09-23T05:09:03.714Z,5.34
2022-09-23T05:11:31.617Z,5.38
2022-09-23T05:13:58.900Z,5.42
2022-09-23T05:16:27.991Z,5.47
2022-09-23T05:18:55.089Z,5.48
2022-09-23T05:21:24.073Z,5.47
2022-09-23T05:23:56.388Z,5.54
2022-09-23T05:26:27.914Z,5.61
2022-09-23T05:28:59.895Z,5.66
2022-09-23T05:31:30.147Z,5.71
2022-09-23T05:34:02.666Z,5.75
2022-09-23T05:36:37.863Z,5.81
2022-09-23T05:39:08.642Z,5.88
2022-09-23T05:41:37.262Z,5.94
2022-09-23T05:44:05.565Z,6.00
2022-09-23T05:46:33.412Z,6.04
2022-09-23T05:49:04.590Z,6.06
2022-09-23T05:51:35.528Z,6.08
2022-09-23T05:54:05.299Z,6.02
2022-09-23T05:56:38.783Z,6.01
2022-09-23T05:59:06.716Z,6.06
2022-09-23T06:01:37.937Z,6.10
2022-09-23T06:04:07.801Z,6.16
2022-09-23T06:06:41.695Z,6.27
2022-09-23T06:09:15.625Z,6.38
2022-09-23T06:11:43.051Z,6.49
2022-09-23T06:14:14.349Z,6.54
2022-09-23T06:16:43.678Z,6.60
2022-09-23T06:19:11.823Z,6.70
2022-09-23T06:21:44.492Z,6.78
2022-09-23T06:24:18.732Z,6.87
2022-09-23T06:26:52.934Z,6.93
2022-09-23T06:29:34.574Z,7.04
2022-09-23T06:32:06.272Z,7.00
2022-09-23T06:34:45.074Z,6.99
2022-09-23T06:37:27.099Z,7.00
2022-09-23T06:39:57.355Z,7.08
2022-09-23T06:42:25.714Z,7.13
2022-09-23T06:44:56.900Z,7.19
2022-09-23T06:47:25.653Z,7.24
2022-09-23T06:49:53.915Z,7.29
2022-09-23T06:52:27.264Z,7.35
2022-09-23T06:55:02.987Z,7.47
2022-09-23T06:57:35.874Z,7.59
2022-09-23T07:00:04.521Z,7.64
2022-09-23T07:02:32.650Z,7.67
2022-09-23T07:05:03.455Z,7.68
2022-09-23T07:07:32.735Z,7.71
2022-09-23T07:10:00.644Z,7.76
2022-09-23T07:12:27.891Z,7.78
2022-09-23T07:14:55.030Z,7.84
2022-09-23T07:17:24.179Z,7.90
2022-09-23T07:19:52.348Z,7.90
2022-09-23T07:22:21.525Z,7.94
2022-09-23T07:24:53.069Z,7.98
2022-09-23T07:27:26.905Z,8.02
2022-09-23T07:29:58.934Z,8.08
2022-09-23T07:32:26.057Z,8.17
2022-09-23T07:34:53.625Z,8.26
2022-09-23T07:37:21.966Z,8.38
2022-09-23T07:39:49.872Z,8.50
2022-09-23T07:42:17.725Z,8.58
2022-09-23T07:44:45.726Z,8.70
2022-09-23T07:47:17.461Z,8.80
2022-09-23T07:49:46.977Z,8.92
2022-09-23T07:52:14.318Z,9.05
2022-09-23T07:54:41.901Z,9.21
2022-09-23T07:57:09.489Z,9.32
2022-09-23T07:59:40.660Z,9.42
2022-09-23T08:02:09.625Z,9.48
2022-09-23T08:04:38.630Z,9.60
2022-09-23T08:07:06.255Z,9.71
2022-09-23T08:09:44.315Z,9.82
2022-09-23T08:12:16.267Z,9.97
2022-09-23T08:14:45.176Z,10.15
2022-09-23T08:17:14.041Z,10.29
2022-09-23T08:19:42.046Z,10.40
2022-09-23T08:22:11.840Z,10.51
2022-09-23T08:24:38.928Z,10.65
2022-09-23T08:27:10.348Z,10.69
2022-09-23T08:29:37.840Z,10.61
2022-09-23T08:32:06.080Z,10.64
2022-09-23T08:34:36.143Z,10.75
2022-09-23T08:37:04.822Z,10.85
2022-09-23T08:39:33.282Z,10.95
2022-09-23T08:42:27.475Z,11.00
2022-09-23T08:45:02.226Z,11.03
2022-09-23T08:47:45.042Z,11.10
2022-09-23T08:50:18.342Z,11.17
2022-09-23T08:52:54.867Z,11.21
2022-09-23T08:55:42.336Z,11.28
2022-09-23T08:58:27.699Z,11.39
2022-09-23T09:01:31.757Z,11.43
2022-09-23T09:04:12.713Z,11.56
2022-09-23T09:06:54.225Z,11.57
2022-09-23T09:09:30.069Z,11.66
2022-09-23T09:12:08.780Z,11.74
2022-09-23T09:15:09.117Z,11.78
2022-09-23T09:17:39.489Z,11.86
2022-09-23T09:20:40.780Z,11.95
2022-09-23T09:23:21.165Z,12.03
2022-09-23T09:25:54.429Z,12.07
2022-09-23T09:28:34.592Z,12.12
2022-09-23T09:31:22.120Z,12.21
2022-09-23T09:34:16.876Z,12.21
2022-09-23T09:37:07.476Z,12.26
2022-09-23T09:39:36.696Z,12.29
2022-09-23T09:42:06.093Z,12.36
2022-09-23T09:44:49.485Z,12.46
2022-09-23T09:47:35.434Z,12.47
2022-09-23T09:50:21.764Z,12.60
2022-09-23T09:52:49.082Z,12.70
2022-09-23T09:55:29.496Z,12.87
2022-09-23T09:58:03.980Z,13.68
2022-09-23T10:00:42.712Z,13.63
2022-09-23T10:03:17.096Z,13.87
2022-09-23T10:05:47.590Z,14.39
2022-09-23T10:08:34.927Z,14.73
2022-09-23T10:11:04.957Z,14.84
2022-09-23T10:13:32.394Z,14.87
2022-09-23T10:16:04.549Z,14.95
2022-09-23T10:18:38.574Z,15.11
2022-09-23T10:21:13.961Z,15.05
2022-09-23T10:23:45.284Z,14.53
2022-09-23T10:26:18.382Z,14.03
2022-09-23T10:29:02.157Z,14.08
2022-09-23T10:31:35.158Z,14.67
2022-09-23T10:34:26.827Z,15.28
2022-09-23T10:37:24.117Z,15.75
2022-09-23T10:40:10.290Z,15.86
2022-09-23T10:42:55.865Z,16.09
2022-09-23T10:45:50.975Z,16.53
2022-09-23T10:48:28.021Z,16.47
2022-09-23T10:50:59.492Z,16.29
2022-09-23T10:53:55.050Z,16.22
2022-09-23T10:56:42.445Z,16.24
2022-09-23T10:59:29.867Z,16.55
2022-09-23T11:02:15.113Z,16.49
2022-09-23T11:05:15.536Z,17.12
2022-09-23T11:07:52.096Z,17.56
2022-09-23T11:10:49.425Z,17.92
2022-09-23T11:13:24.255Z,18.26
2022-09-23T11:16:19.570Z,18.44
2022-09-23T11:19:11.128Z,18.57
2022-09-23T11:22:08.413Z,18.34
2022-09-23T11:25:13.727Z,17.48
2022-09-23T11:28:03.296Z,17.61
2022-09-23T11:30:53.341Z,17.62
2022-09-23T11:33:32.745Z,17.48
2022-09-23T11:36:07.013Z,17.17
2022-09-23T11:38:45.923Z,17.03
2022-09-23T11:41:23.058Z,17.08
2022-09-23T11:43:55.010Z,17.14
2022-09-23T11:46:38.429Z,16.94
2022-09-23T11:49:15.231Z,16.95
2022-09-23T11:52:13.415Z,17.67
2022-09-23T11:54:54.002Z,17.58
2022-09-23T11:57:43.144Z,17.25
2022-09-23T12:00:27.979Z,17.47
2022-09-23T12:03:06.491Z,18.01
2022-09-23T12:05:47.002Z,18.46
2022-09-23T12:08:30.399Z,18.92
2022-09-23T12:11:26.756Z,19.27
2022-09-23T12:14:18.414Z,19.10
2022-09-23T12:17:14.451Z,18.92
2022-09-23T12:20:04.767Z,19.44
2022-09-23T12:22:38.796Z,19.71
2022-09-23T12:25:05.835Z,19.74
2022-09-23T12:27:44.398Z,19.96
2022-09-23T12:30:14.096Z,19.95
2022-09-23T12:32:42.932Z,19.75
2022-09-23T12:35:32.128Z,19.41
2022-09-23T12:38:01.032Z,18.76
2022-09-23T12:40:43.146Z,17.80
2022-09-23T12:43:50.536Z,17.20
2022-09-23T12:46:26.863Z,16.46
2022-09-23T12:49:24.553Z,16.04
2022-09-23T12:52:10.869Z,16.39
2022-09-23T12:54:43.672Z,17.10
2022-09-23T12:57:21.197Z,17.79
2022-09-23T13:04:14.918Z,17.51
2022-09-23T13:21:18.895Z,17.00
2022-09-23T13:24:38.707Z,16.85
2022-09-23T13:28:17.917Z,16.93
2022-09-23T13:31:42.999Z,16.36
2022-09-23T13:41:02.437Z,14.87
2022-09-23T13:43:42.317Z,14.70
2022-09-23T13:46:15.787Z,14.51
2022-09-23T13:48:46.034Z,14.35
2022-09-23T13:51:27.083Z,14.22
2022-09-23T13:53:55.198Z,14.09
2022-09-23T13:56:25.608Z,13.95
2022-09-23T13:58:56.912Z,13.88
2022-09-23T14:01:34.867Z,13.88
2022-09-23T14:04:03.534Z,13.88
2022-09-23T14:06:31.510Z,13.82
2022-09-23T14:09:03.638Z,13.75
2022-09-23T14:11:34.989Z,13.76
2022-09-23T14:14:07.291Z,13.79
2022-09-23T14:16:43.202Z,13.79
2022-09-23T14:19:23.996Z,13.77
2022-09-23T14:21:53.971Z,13.74
2022-09-23T14:24:33.889Z,13.76
2022-09-23T14:27:13.228Z,13.78
2022-09-23T14:29:47.074Z,14.01
2022-09-23T14:32:20.564Z,14.29
2022-09-23T14:35:00.479Z,14.27
2022-09-23T14:37:58.484Z,14.21
2022-09-23T14:40:50.538Z,14.18
2022-09-23T14:43:27.839Z,14.07
2022-09-23T14:45:57.317Z,13.93
2022-09-23T14:48:33.548Z,13.85
2022-09-23T14:51:06.140Z,13.76
2022-09-23T14:53:45.239Z,13.73
2022-09-23T14:56:21.240Z,13.68
2022-09-23T14:58:58.411Z,13.66
2022-09-23T15:01:32.471Z,13.67
2022-09-23T15:04:13.494Z,13.72
2022-09-23T15:06:46.477Z,13.78
2022-09-23T15:09:23.103Z,13.80
2022-09-23T15:11:57.624Z,13.82
2022-09-23T15:14:37.705Z,13.80
2022-09-23T15:17:29.841Z,13.75
2022-09-23T15:20:05.122Z,13.67
2022-09-23T15:22:42.077Z,13.64
2022-09-23T15:25:40.315Z,13.59
2022-09-23T15:28:10.541Z,13.54
2022-09-23T15:30:38.875Z,13.50
2022-09-23T15:33:13.543Z,13.51
2022-09-23T15:35:48.012Z,13.53
2022-09-23T15:38:17.116Z,13.54
2022-09-23T15:40:44.616Z,13.47
2022-09-23T15:43:21.965Z,13.42
2022-09-23T15:45:51.496Z,13.36
2022-09-23T15:48:22.742Z,13.28
2022-09-23T15:50:51.904Z,13.18
2022-09-23T15:53:23.507Z,13.07
2022-09-23T15:55:51.174Z,12.99
2022-09-23T15:58:20.207Z,12.93
2022-09-23T16:00:56.065Z,12.87
2022-09-23T16:03:27.877Z,12.79
2022-09-23T16:05:59.565Z,12.73
2022-09-23T16:08:27.858Z,12.67
2022-09-23T16:10:56.213Z,12.61
2022-09-23T16:13:23.858Z,12.55
2022-09-23T16:15:50.811Z,12.48
2022-09-23T16:18:17.845Z,12.42
2022-09-23T16:20:46.978Z,12.37
2022-09-23T16:23:35.462Z,12.30
2022-09-23T16:26:10.799Z,12.23
2022-09-23T16:28:37.952Z,12.18
2022-09-23T16:31:05.304Z,12.14
2022-09-23T16:33:32.717Z,12.11
2022-09-23T16:36:03.138Z,12.09
2022-09-23T16:38:32.136Z,12.07
2022-09-23T16:41:00.013Z,12.01
2022-09-23T16:43:31.328Z,11.97
2022-09-23T16:45:58.794Z,11.93
2022-09-23T16:48:26.057Z,11.86
2022-09-23T16:50:55.758Z,11.77
2022-09-23T16:53:23.299Z,11.70
2022-09-23T16:55:53.270Z,11.63
2022-09-23T16:58:20.755Z,11.56
2022-09-23T17:01:06.645Z,11.51
2022-09-23T17:03:40.755Z,11.42
2022-09-23T17:06:15.800Z,11.36
2022-09-23T17:08:47.781Z,11.31
2022-09-23T17:11:16.371Z,11.26
2022-09-23T17:13:44.463Z,11.20
2022-09-23T17:16:22.580Z,11.15
2022-09-23T17:18:49.622Z,11.12
2022-09-23T17:21:16.914Z,11.06
2022-09-23T17:23:46.483Z,10.98
2022-09-23T17:26:15.341Z,10.90
2022-09-23T17:28:42.913Z,10.86
2022-09-23T17:31:09.994Z,10.80
2022-09-23T17:33:37.381Z,10.71
2022-09-23T17:36:09.947Z,10.62
2022-09-23T17:38:38.948Z,10.55
2022-09-23T17:41:07.703Z,10.45
2022-09-23T17:43:35.668Z,10.40
2022-09-23T17:46:06.177Z,10.36
2022-09-23T17:48:34.387Z,10.33
2022-09-23T17:51:04.482Z,10.31
2022-09-23T17:53:36.855Z,10.31
2022-09-23T17:56:07.216Z,10.32
2022-09-23T17:58:36.766Z,10.36
2022-09-23T18:01:08.268Z,10.40
2022-09-23T18:03:35.969Z,10.43
2022-09-23T18:06:07.376Z,10.46
2022-09-23T18:08:34.625Z,10.50
2022-09-23T18:11:13.025Z,10.53
2022-09-23T18:13:41.896Z,10.58
2022-09-23T18:16:09.828Z,10.61
2022-09-23T18:18:58.768Z,10.64
2022-09-23T18:21:42.899Z,10.68
2022-09-23T18:24:31.176Z,10.71
2022-09-23T18:26:59.619Z,10.71
2022-09-23T18:29:27.238Z,10.71
2022-09-23T18:31:56.178Z,10.70
2022-09-23T18:34:25.238Z,10.70
2022-09-23T18:36:57.679Z,10.72
2022-09-23T18:39:26.273Z,10.74
2022-09-23T18:41:54.795Z,10.76
2022-09-23T18:44:23.446Z,10.76
2022-09-23T18:46:51.736Z,10.76
2022-09-23T18:49:38.221Z,10.74
2022-09-23T18:52:05.376Z,10.73
2022-09-23T18:54:32.956Z,10.71
2022-09-23T18:57:00.193Z,10.69
2022-09-23T18:59:29.307Z,10.68
2022-09-23T19:01:58.571Z,10.69
2022-09-23T19:04:27.010Z,10.71
2022-09-23T19:06:57.394Z,10.74
2022-09-23T19:09:24.950Z,10.76
2022-09-23T19:11:53.725Z,10.76
2022-09-23T19:14:21.052Z,10.74
2022-09-23T19:16:49.186Z,10.70
2022-09-23T19:19:19.588Z,10.71
2022-09-23T19:21:46.968Z,10.69
2022-09-23T19:24:20.371Z,10.67
2022-09-23T19:26:48.392Z,10.65
2022-09-23T19:29:19.771Z,10.65
2022-09-23T19:31:48.904Z,10.68
2022-09-23T19:34:23.378Z,10.71
2022-09-23T19:36:50.860Z,10.71
2022-09-23T19:39:23.537Z,10.76
2022-09-23T19:41:52.217Z,10.77
2022-09-23T19:44:19.680Z,10.81
2022-09-23T19:46:53.375Z,10.84
2022-09-23T19:49:24.298Z,10.86
2022-09-23T19:51:54.730Z,10.88
2022-09-23T19:54:21.828Z,10.91
2022-09-23T19:56:49.573Z,10.95
2022-09-23T19:59:19.007Z,10.99
2022-09-23T20:01:47.670Z,11.03
2022-09-23T20:04:16.335Z,11.06
2022-09-23T20:06:43.685Z,11.08
2022-09-23T20:09:11.316Z,11.11
2022-09-23T20:11:43.130Z,11.11
2022-09-23T20:14:11.552Z,11.09
2022-09-23T20:16:40.086Z,11.10
2022-09-23T20:19:07.621Z,11.12
2022-09-23T20:21:35.203Z,11.12
2022-09-23T20:24:07.735Z,11.14
2022-09-23T20:26:53.866Z,11.16
2022-09-23T20:29:21.907Z,11.14
2022-09-23T20:31:49.020Z,11.12
2022-09-23T20:34:16.167Z,11.11
2022-09-23T20:36:44.622Z,11.10
2022-09-23T20:39:13.070Z,11.06
2022-09-23T20:41:40.647Z,11.04
2022-09-23T20:44:14.008Z,11.00
2022-09-23T20:46:48.553Z,10.95
2022-09-23T20:49:17.438Z,10.85
2022-09-23T20:51:47.415Z,10.76
2022-09-23T20:54:16.429Z,10.63
2022-09-23T20:56:43.549Z,10.52
2022-09-23T20:59:14.728Z,10.38
2022-09-23T21:01:46.262Z,10.27
2022-09-23T21:04:13.999Z,10.19
2022-09-23T21:06:41.174Z,10.12
2022-09-23T21:09:08.322Z,10.06
2022-09-23T21:11:35.364Z,9.95
2022-09-23T21:14:03.135Z,9.85
2022-09-23T21:16:31.812Z,9.71
2022-09-23T21:19:00.009Z,9.61
2022-09-23T21:21:27.692Z,9.49
2022-09-23T21:24:11.727Z,9.38
2022-09-23T21:26:47.566Z,9.24
2022-09-23T21:29:15.845Z,9.09
2022-09-23T21:31:42.860Z,8.98
2022-09-23T21:34:14.314Z,8.89
2022-09-23T21:36:43.604Z,8.80
2022-09-23T21:39:11.637Z,8.77
2022-09-23T21:41:39.709Z,8.73
2022-09-23T21:44:07.475Z,8.66
2022-09-23T21:46:35.380Z,8.64
2022-09-23T21:49:04.049Z,8.56
2022-09-23T21:51:36.418Z,8.48
2022-09-23T21:54:05.193Z,8.37
2022-09-23T21:56:34.936Z,8.25
2022-09-23T21:59:02.971Z,8.12
2022-09-23T22:01:34.278Z,8.04
2022-09-23T22:04:05.047Z,7.96
2022-09-23T22:06:32.284Z,7.92
2022-09-23T22:09:02.207Z,7.93
2022-09-23T22:11:49.991Z,7.94
2022-09-23T22:14:19.208Z,7.97
2022-09-23T22:16:46.485Z,7.98
2022-09-23T22:19:14.651Z,7.97
2022-09-23T22:21:44.653Z,7.95
2022-09-23T22:24:12.737Z,7.94
2022-09-23T22:26:42.817Z,7.93
2022-09-23T22:29:34.162Z,7.85
2022-09-23T22:32:21.742Z,7.73
2022-09-23T22:34:51.091Z,7.67
2022-09-23T22:37:25.058Z,7.68
2022-09-23T22:39:52.486Z,7.67
2022-09-23T22:42:23.444Z,7.66
2022-09-23T22:44:51.110Z,7.61
2022-09-23T22:47:19.575Z,7.55
2022-09-23T22:49:47.336Z,7.51
2022-09-23T22:52:20.553Z,7.51
2022-09-23T22:54:47.611Z,7.45
2022-09-23T22:57:15.446Z,7.38
2022-09-23T22:59:47.482Z,7.35
2022-09-23T23:02:16.041Z,7.29
2022-09-23T23:04:46.772Z,7.25
2022-09-23T23:07:14.796Z,7.25
2022-09-23T23:09:41.744Z,7.20
2022-09-23T23:12:08.738Z,7.17
2022-09-23T23:14:35.990Z,7.08
2022-09-23T23:17:06.803Z,7.01
2022-09-23T23:19:35.953Z,6.96
2022-09-23T23:22:04.351Z,6.93
2022-09-23T23:24:31.968Z,6.91
2022-09-23T23:26:59.014Z,6.89
2022-09-23T23:29:27.319Z,6.85
2022-09-23T23:31:54.730Z,6.84
2022-09-23T23:34:21.723Z,6.82
2022-09-23T23:36:56.101Z,6.79
2022-09-23T23:39:24.738Z,6.76
2022-09-23T23:41:54.458Z,6.73
2022-09-23T23:44:23.316Z,6.70
2022-09-23T23:46:51.152Z,6.68
2022-09-23T23:49:18.202Z,6.64
2022-09-23T23:51:45.210Z,6.57
2022-09-23T23:54:12.339Z,6.52
2022-09-23T23:56:39.413Z,6.49
2022-09-23T23:59:06.370Z,6.47
